Time;durP1;ratioP1;P1;durP2;ratioP2;P2;SDS_P1;SDS_P2;PMS_P1;PMS_P2;Temp;Humidity;BMP_temperature;BMP_pressure;BME280_temperature;BME280_humidity;BME280_pressure;Samples;Min_cycle;Max_cycle;Signal;HPM_P1;HPM_P2
2022/08/11 00:01:24;;;;;;;3.15;2.10;;;23.00;46.30;;;;;;5074530;28;20101;-51
2022/08/11 00:03:58;;;;;;;2.55;1.98;;;23.00;46.50;;;;;;5090432;28;20531;-53
2022/08/11 00:06:27;;;;;;;;;;;22.90;46.30;;;;;;5075059;28;20538;-48
2022/08/11 00:08:55;;;;;;;2.63;2.05;;;22.90;45.10;;;;;;5089251;28;19919;-55
2022/08/11 00:11:38;;;;;;;3.85;2.45;;;22.80;45.70;;;;;;5093185;28;20036;-50
2022/08/11 00:14:26;;;;;;;2.15;1.98;;;22.80;46.20;;;;;;5094474;28;20581;-49
2022/08/11 00:17:08;;;;;;;2.70;2.50;;;22.70;46.90;;;;;;5076626;28;20044;-50
2022/08/11 00:19:44;;;;;;;2.70;2.15;;;22.70;46.60;;;;;;5090539;28;20101;-50
2022/08/11 00:22:32;;;;;;;3.25;1.88;;;22.60;46.70;;;;;;5054423;28;20498;-51
2022/08/11 00:25:07;;;;;;;3.25;2.30;;;22.60;46.70;;;;;;5063088;28;20041;-51
2022/08/11 00:27:40;;;;;;;2.20;2.10;;;22.50;46.80;;;;;;5078440;28;20040;-53
2022/08/11 00:30:10;;;;;;;3.47;2.25;;;22.40;47.00;;;;;;5087128;28;20393;-52
2022/08/11 00:32:45;;;;;;;2.80;2.03;;;22.40;47.30;;;;;;5092657;28;20492;-49
2022/08/11 00:35:16;;;;;;;2.10;1.90;;;22.40;47.70;;;;;;5081653;28;20029;-50
2022/08/11 00:38:05;;;;;;;2.55;2.30;;;22.30;47.50;;;;;;5085774;28;20094;-53
2022/08/11 00:40:47;;;;;;;2.53;2.17;;;22.30;47.50;;;;;;5094025;28;20070;-48
2022/08/11 00:43:40;;;;;;;4.15;2.47;;;22.30;48.20;;;;;;5093601;28;20047;-49
2022/08/11 00:46:28;;;;;;;2.38;2.00;;;22.20;48.10;;;;;;5078207;28;20554;-52
2022/08/11 00:48:54;;;;;;;2.17;1.80;;;22.10;47.80;;;;;;5093599;28;20055;-52
2022/08/11 00:51:41;;;;;;;2.05;1.92;;;22.10;47.50;;;;;;5093647;28;20142;-55
2022/08/11 00:54:37;;;;;;;3.30;2.05;;;22.00;48.20;;;;;;5068662;28;20123;-49
2022/08/11 00:57:43;;;;;;;2.22;2.03;;;22.00;48.50;;;;;;5085449;28;20081;-50
2022/08/11 01:00:16;;;;;;;3.85;2.88;;;21.90;48.30;;;;;;5093294;28;20048;-53
2022/08/11 01:03:08;;;;;;;2.38;2.10;;;22.00;48.60;;;;;;5081081;28;20071;-54
2022/08/11 01:05:54;;;;;;;2.45;2.25;;;21.90;48.70;;;;;;5080840;28;20044;-49
2022/08/11 01:08:42;;;;;;;1.98;1.85;;;21.80;48.10;;;;;;5053056;28;20048;-53
2022/08/11 01:11:44;;;;;;;2.30;2.10;;;21.80;49.10;;;;;;5058310;28;20471;-49
2022/08/11 01:14:43;;;;;;;3.28;2.05;;;21.70;49.10;;;;;;5079461;28;20040;-49
2022/08/11 01:17:40;;;;;;;2.55;2.35;;;21.60;48.90;;;;;;5093004;28;20504;-50
2022/08/11 01:20:32;;;;;;;2.55;1.90;;;21.60;48.90;;;;;;5093054;28;20044;-50
2022/08/11 01:23:52;;;;;;;2.45;2.25;;;21.50;49.10;;;;;;5077228;28;20131;-49
2022/08/11 01:26:56;;;;;;;2.63;1.98;;;21.50;49.20;;;;;;5092638;28;20036;-53
2022/08/11 01:30:01;;;;;;;2.08;1.88;;;21.40;49.20;;;;;;5085236;28;20466;-50
2022/08/11 01:32:59;;;;;;;5.18;2.30;;;21.40;49.20;;;;;;5076596;28;20405;-53
2022/08/11 01:35:59;;;;;;;2.40;2.20;;;21.30;49.30;;;;;;5077716;28;20625;-48
2022/08/11 01:38:38;;;;;;;2.35;2.15;;;21.30;49.80;;;;;;5070414;28;20048;-49
2022/08/11 01:44:36;;;;;;;2.83;2.20;;;21.20;49.10;;;;;;5075081;28;20048;-52
2022/08/11 01:47:50;;;;;;;1.90;1.80;;;21.20;48.20;;;;;;5092595;28;19919;-50
2022/08/11 01:50:46;;;;;;;3.15;2.10;;;21.10;49.40;;;;;;5067469;28;20408;-49
2022/08/11 01:53:37;;;;;;;3.47;2.30;;;21.00;49.60;;;;;;5078617;28;20069;-50
2022/08/11 01:56:30;;;;;;;3.00;2.40;;;21.00;49.80;;;;;;5091771;28;20722;-49
2022/08/11 01:59:27;;;;;;;3.35;2.15;;;20.90;50.00;;;;;;5080293;28;20040;-49
2022/08/11 02:02:44;;;;;;;5.13;2.28;;;20.90;50.30;;;;;;5084236;28;20044;-48
2022/08/11 02:05:26;;;;;;;2.30;2.10;;;20.80;50.50;;;;;;5090609;28;20040;-48
2022/08/11 02:08:13;;;;;;;3.10;2.35;;;20.80;50.20;;;;;;5085645;28;20062;-54
2022/08/11 02:13:55;;;;;;;2.80;2.33;;;20.70;50.40;;;;;;5084162;28;20117;-51
2022/08/11 02:16:56;;;;;;;3.53;2.47;;;20.60;49.80;;;;;;5087007;28;20052;-50
2022/08/11 02:26:31;;;;;;;3.28;2.22;;;20.50;50.70;;;;;;5086836;28;20040;-52
2022/08/11 02:29:27;;;;;;;3.38;2.20;;;20.50;50.60;;;;;;5073905;28;20054;-48
2022/08/11 02:35:22;;;;;;;2.50;2.05;;;20.40;50.70;;;;;;5091339;28;20060;-52
2022/08/11 02:38:20;;;;;;;2.72;2.10;;;20.30;50.90;;;;;;5078371;28;20075;-50
2022/08/11 02:44:27;;;;;;;4.32;2.35;;;20.20;51.10;;;;;;5050748;28;20111;-50
2022/08/11 02:47:13;;;;;;;2.67;1.88;;;20.20;51.20;;;;;;5066240;28;20036;-49
2022/08/11 02:49:55;;;;;;;5.15;3.78;;;20.10;50.80;;;;;;5087660;28;20493;-53
2022/08/11 02:53:08;;;;;;;3.70;2.38;;;20.10;50.70;;;;;;5055448;28;20041;-51
2022/08/11 02:55:56;;;;;;;2.40;2.20;;;20.10;51.50;;;;;;5068937;28;20051;-49
2022/08/11 02:59:48;;;;;;;2.50;2.30;;;20.10;51.40;;;;;;5090942;28;20052;-53
2022/08/11 03:01:57;;;;;;;2.42;2.30;;;20.00;51.50;;;;;;5091325;28;20077;-51
2022/08/11 03:04:47;;;;;;;2.80;2.28;;;20.00;51.70;;;;;;5072960;28;20041;-49
2022/08/11 03:07:22;;;;;;;2.72;2.50;;;19.90;51.70;;;;;;5076960;28;20602;-50
2022/08/11 03:10:17;;;;;;;2.83;2.63;;;19.90;51.40;;;;;;5091020;28;20044;-54
2022/08/11 03:18:44;;;;;;;3.58;2.22;;;19.80;51.80;;;;;;5079467;28;20040;-50
2022/08/11 03:21:25;;;;;;;2.67;2.47;;;19.80;51.90;;;;;;5090774;28;20116;-58
2022/08/11 03:24:23;;;;;;;2.13;2.00;;;19.70;52.10;;;;;;5074579;28;20133;-51
2022/08/11 03:27:00;;;;;;;2.97;2.15;;;19.70;52.30;;;;;;5082471;28;20419;-52
2022/08/11 03:29:36;;;;;;;3.33;2.20;;;19.70;52.30;;;;;;5090642;28;20044;-49
2022/08/11 03:32:23;;;;;;;3.10;2.50;;;19.60;52.00;;;;;;5088221;28;20052;-50
2022/08/11 03:34:54;;;;;;;2.47;2.28;;;19.60;52.00;;;;;;5075157;28;20044;-48
2022/08/11 03:38:01;;;;;;;2.78;2.42;;;19.60;52.00;;;;;;5074672;28;20741;-49
2022/08/11 03:43:53;;;;;;;3.03;2.22;;;19.50;52.40;;;;;;5073932;28;20040;-53
2022/08/11 03:46:25;;;;;;;2.13;1.92;;;19.50;52.50;;;;;;5081312;28;20051;-50
2022/08/11 03:49:19;;;;;;;2.40;2.20;;;19.40;51.70;;;;;;5081457;28;20048;-51
2022/08/11 03:51:59;;;;;;;2.45;2.25;;;19.40;52.40;;;;;;5082290;28;20098;-49
2022/08/11 03:54:37;;;;;;;2.60;2.17;;;19.40;51.90;;;;;;5057640;28;20044;-49
2022/08/11 03:57:42;;;;;;;3.10;2.75;;;19.40;51.90;;;;;;5074928;28;20048;-49
2022/08/11 04:00:20;;;;;;;2.88;2.22;;;19.30;52.90;;;;;;5082608;28;20055;-52
2022/08/11 04:03:10;;;;;;;6.65;2.63;;;19.30;52.30;;;;;;5078014;28;20577;-49
2022/08/11 04:06:14;;;;;;;3.50;2.70;;;19.30;53.10;;;;;;5030411;28;20085;-48
2022/08/11 04:09:38;;;;;;;2.40;2.20;;;19.20;53.00;;;;;;5081340;28;20523;-48
2022/08/11 04:12:42;;;;;;;2.63;2.35;;;19.20;52.90;;;;;;5091027;28;20036;-50
2022/08/11 04:16:01;;;;;;;2.30;2.10;;;19.20;53.00;;;;;;5066829;28;20386;-54
2022/08/11 04:18:49;;;;;;;2.38;2.17;;;19.10;52.90;;;;;;5079732;28;20059;-51
2022/08/11 04:21:18;;;;;;;2.72;2.30;;;19.10;52.10;;;;;;5071477;28;20116;-54
2022/08/11 04:24:12;;;;;;;2.70;2.30;;;19.10;52.40;;;;;;5086585;28;20115;-51
2022/08/11 04:27:25;;;;;;;2.45;2.08;;;19.00;53.20;;;;;;5050269;28;20112;-50
2022/08/11 04:30:11;;;;;;;2.50;2.15;;;19.00;53.00;;;;;;5070789;28;20049;-55
2022/08/11 04:32:47;;;;;;;4.25;2.63;;;19.00;52.80;;;;;;5080457;28;20040;-54
2022/08/11 04:35:36;;;;;;;2.42;2.22;;;19.00;53.40;;;;;;5090214;28;20046;-55
2022/08/11 04:38:18;;;;;;;2.95;2.70;;;18.90;53.10;;;;;;5088422;28;20044;-53
2022/08/11 04:41:18;;;;;;;3.47;2.47;;;18.90;53.90;;;;;;5078395;28;20086;-50
2022/08/11 04:44:05;;;;;;;3.10;2.80;;;18.90;54.10;;;;;;5064513;28;20051;-54
2022/08/11 04:47:01;;;;;;;2.75;2.53;;;18.90;53.20;;;;;;5026635;28;20483;-50
2022/08/11 05:03:10;;;;;;;4.38;2.60;;;18.90;54.00;;;;;;5068486;28;20404;-50
2022/08/11 05:06:05;;;;;;;3.30;2.88;;;18.90;54.40;;;;;;5051019;28;20048;-50
2022/08/11 05:08:54;;;;;;;4.35;3.20;;;19.00;54.80;;;;;;5046913;28;20065;-55
2022/08/11 05:11:40;;;;;;;3.13;2.65;;;18.90;54.40;;;;;;5085039;28;20045;-53
2022/08/11 05:34:55;;;;;;;3.58;2.95;;;19.20;55.80;;;;;;5084324;28;20041;-51
2022/08/11 05:37:33;;;;;;;5.68;3.63;;;19.20;56.50;;;;;;5070511;28;20044;-51
2022/08/11 05:57:36;;;;;;;4.03;2.75;;;19.60;56.50;;;;;;5076894;28;20048;-51
2022/08/11 06:00:18;;;;;;;3.58;3.28;;;19.70;57.00;;;;;;5090719;28;20054;-49
2022/08/11 06:02:54;;;;;;;3.55;3.13;;;19.70;57.40;;;;;;5081142;28;20048;-53
2022/08/11 06:05:34;;;;;;;4.57;3.58;;;19.80;57.70;;;;;;5077676;28;20139;-52
2022/08/11 06:08:11;;;;;;;3.97;2.80;;;19.80;57.80;;;;;;5089959;28;20123;-55
2022/08/11 06:10:42;;;;;;;4.82;3.25;;;19.90;57.30;;;;;;5064464;28;20068;-54
2022/08/11 06:13:13;;;;;;;6.47;3.40;;;20.00;57.60;;;;;;5070686;28;20099;-52
2022/08/11 06:15:45;;;;;;;6.35;3.25;;;20.00;57.60;;;;;;5088621;28;20411;-52
2022/08/11 06:18:13;;;;;;;5.20;3.20;;;20.10;57.80;;;;;;5090480;28;20040;-53
2022/08/11 06:20:59;;;;;;;3.88;3.10;;;20.20;58.00;;;;;;5090706;28;20036;-52
2022/08/11 06:23:32;;;;;;;4.95;3.67;;;20.30;58.80;;;;;;5076109;28;20086;-48
2022/08/11 06:26:11;;;;;;;5.95;3.72;;;20.30;58.50;;;;;;5087374;28;20039;-49
2022/08/11 06:28:45;;;;;;;6.60;4.00;;;20.40;59.20;;;;;;5070886;28;20051;-53
2022/08/11 06:31:15;;;;;;;7.22;3.30;;;20.50;58.30;;;;;;5077188;28;20037;-52
2022/08/11 06:34:06;;;;;;;8.13;3.45;;;20.50;58.50;;;;;;5078868;28;20044;-53
2022/08/11 06:36:39;;;;;;;5.65;3.33;;;20.60;58.70;;;;;;5069948;28;20044;-50
2022/08/11 06:39:41;;;;;;;5.35;3.88;;;20.70;58.20;;;;;;5072028;28;20558;-53
2022/08/11 06:42:23;;;;;;;5.80;3.42;;;20.80;59.00;;;;;;5068469;28;20087;-52
2022/08/11 06:45:38;;;;;;;7.05;3.90;;;20.90;58.40;;;;;;5067780;28;20056;-49
2022/08/11 06:48:17;;;;;;;7.53;5.50;;;21.00;58.70;;;;;;5082341;28;20036;-50
2022/08/11 06:51:13;;;;;;;3.75;3.35;;;21.10;58.00;;;;;;5072233;28;20042;-55
2022/08/11 06:53:58;;;;;;;6.93;3.28;;;21.10;58.50;;;;;;5057975;28;20602;-53
2022/08/11 07:02:41;;;;;;;4.43;3.30;;;21.40;54.30;;;;;;5066834;28;20044;-52
2022/08/11 07:05:27;;;;;;;5.20;3.53;;;21.50;54.40;;;;;;5090172;28;20044;-51
2022/08/11 07:16:58;;;;;;;5.20;3.08;;;22.00;52.10;;;;;;5083823;28;20044;-55
2022/08/11 07:31:02;;;;;;;4.20;2.70;;;22.60;49.30;;;;;;5087923;28;20521;-53
2022/08/11 07:33:45;;;;;;;4.90;2.78;;;22.80;48.70;;;;;;5050804;28;20595;-52
2022/08/11 07:36:34;;;;;;;3.28;2.85;;;22.90;47.90;;;;;;5061244;28;20052;-51
2022/08/11 07:39:01;;;;;;;3.00;2.80;;;23.00;47.90;;;;;;5079814;28;20037;-50
2022/08/11 07:41:36;;;;;;;3.95;2.60;;;23.10;47.60;;;;;;5090457;28;20500;-57
2022/08/11 07:44:10;;;;;;;4.82;2.80;;;23.30;47.30;;;;;;5089622;28;20810;-53
2022/08/11 07:55:24;;;;;;;3.83;2.97;;;23.70;46.40;;;;;;5049095;28;20416;-54
2022/08/11 08:18:04;;;;;;;5.35;3.40;;;24.50;44.40;;;;;;5088088;28;20048;-49
2022/08/11 08:20:53;;;;;;;6.55;2.83;;;24.60;44.60;;;;;;5073052;28;20132;-50
2022/08/11 08:23:32;;;;;;;5.20;2.78;;;24.70;43.80;;;;;;5060918;28;20044;-53
2022/08/11 08:31:51;;;;;;;3.45;2.70;;;25.00;43.20;;;;;;5091220;28;20077;-50
2022/08/11 08:34:19;;;;;;;4.30;3.13;;;25.10;42.80;;;;;;5080309;28;20040;-52
2022/08/11 08:36:54;;;;;;;5.57;3.17;;;25.10;42.40;;;;;;5090762;28;20051;-49
2022/08/11 08:39:22;;;;;;;4.32;2.67;;;25.30;42.20;;;;;;5061634;28;20127;-54
2022/08/11 08:41:56;;;;;;;8.48;3.05;;;25.30;42.10;;;;;;5063937;28;20045;-52
2022/08/11 08:44:33;;;;;;;5.40;2.60;;;25.50;41.70;;;;;;5082022;28;20048;-52
2022/08/11 08:47:09;;;;;;;3.83;2.67;;;25.60;41.60;;;;;;5093525;28;20475;-48
2022/08/11 08:49:40;;;;;;;2.83;2.40;;;25.60;41.40;;;;;;5093922;28;20036;-53
2022/08/11 08:52:14;;;;;;;3.08;2.50;;;25.70;40.80;;;;;;5086759;28;20032;-55
2022/08/11 08:55:01;;;;;;;5.95;3.50;;;25.80;40.60;;;;;;5070237;28;20040;-52
2022/08/11 08:57:34;;;;;;;3.78;2.65;;;25.90;40.60;;;;;;5080999;28;20089;-52
2022/08/11 09:00:06;;;;;;;5.85;3.10;;;26.00;40.80;;;;;;5088572;28;20471;-50
2022/08/11 09:02:38;;;;;;;5.82;3.22;;;26.10;40.80;;;;;;5078308;28;20044;-53
2022/08/11 09:05:07;;;;;;;3.60;3.15;;;26.10;40.40;;;;;;5079632;28;20066;-51
2022/08/11 09:07:35;;;;;;;3.13;2.72;;;26.20;40.50;;;;;;5079956;28;20097;-52
2022/08/11 09:10:08;;;;;;;6.40;2.60;;;26.20;40.40;;;;;;5087165;28;20152;-52
2022/08/11 09:12:41;;;;;;;6.13;3.15;;;26.30;40.00;;;;;;5093506;28;20074;-53
2022/08/11 09:15:12;;;;;;;8.00;3.03;;;26.40;40.20;;;;;;5077183;28;20036;-56
2022/08/11 09:17:40;;;;;;;4.55;2.58;;;26.50;39.90;;;;;;5088656;28;20043;-51
2022/08/11 09:20:11;;;;;;;4.75;2.53;;;26.50;40.00;;;;;;5080439;28;20048;-56
2022/08/11 09:28:33;;;;;;;5.57;2.90;;;26.70;39.20;;;;;;5068954;28;20048;-55
2022/08/11 09:31:04;;;;;;;8.45;2.70;;;26.80;38.80;;;;;;5071526;28;20036;-51
2022/08/11 09:33:34;;;;;;;3.55;2.63;;;26.90;38.60;;;;;;5090800;28;20036;-51
2022/08/11 09:40:27;;;;;;;5.25;2.67;;;27.00;38.50;;;;;;5070544;28;20520;-51
2022/08/11 09:41:42;;;;;;;6.22;2.60;;;27.10;37.80;;;;;;5078542;28;20555;-53
2022/08/11 09:44:48;;;;;;;3.75;3.08;;;27.20;37.70;;;;;;5077986;28;20040;-54
2022/08/11 09:47:23;;;;;;;3.10;2.70;;;27.30;37.60;;;;;;5077407;28;20082;-53
2022/08/11 09:49:58;;;;;;;2.70;2.30;;;27.40;36.90;;;;;;5089767;28;20040;-50
2022/08/11 09:52:35;;;;;;;3.00;2.50;;;27.50;36.80;;;;;;5052391;28;20116;-52
2022/08/11 09:55:09;;;;;;;3.10;2.25;;;27.60;36.60;;;;;;5069341;28;20094;-50
2022/08/11 10:00:39;;;;;;;2.83;2.22;;;27.70;36.30;;;;;;5082551;28;20105;-51
2022/08/11 10:03:16;;;;;;;4.60;2.53;;;27.80;36.10;;;;;;5092891;28;20101;-49
2022/08/11 10:08:41;;;;;;;6.05;2.20;;;28.00;35.60;;;;;;5082021;28;20047;-55
2022/08/11 10:11:13;;;;;;;3.53;2.55;;;28.10;35.30;;;;;;5089601;28;20595;-54
2022/08/11 10:16:53;;;;;;;3.30;2.20;;;28.30;35.30;;;;;;5071568;28;20155;-49
2022/08/11 10:19:21;;;;;;;2.85;2.00;;;28.40;34.90;;;;;;5075248;28;20040;-55
2022/08/11 10:27:33;;;;;;;4.97;2.28;;;28.60;34.00;;;;;;5076783;28;20039;-51
2022/08/11 10:36:05;;;;;;;2.35;2.15;;;28.80;34.00;;;;;;5064424;28;20045;-53
2022/08/11 10:38:44;;;;;;;3.28;2.53;;;28.90;33.60;;;;;;5068107;28;20045;-51
2022/08/11 10:44:02;;;;;;;3.80;2.00;;;29.10;32.90;;;;;;5077826;28;20044;-50
2022/08/11 10:49:20;;;;;;;3.60;2.35;;;29.20;33.20;;;;;;5086905;28;20093;-53
2022/08/11 11:00:31;;;;;;;2.75;2.55;;;29.60;32.50;;;;;;5048064;28;20048;-54
2022/08/11 11:02:59;;;;;;;4.03;2.05;;;29.60;32.60;;;;;;5062689;28;20032;-50
2022/08/11 11:05:54;;;;;;;3.63;2.70;;;29.70;32.60;;;;;;5063500;28;20041;-48
2022/08/11 11:08:51;;;;;;;4.28;1.92;;;29.80;32.00;;;;;;5066167;28;20858;-50
2022/08/11 11:11:21;;;;;;;3.47;2.65;;;29.80;31.40;;;;;;5061961;28;20409;-54
2022/08/11 11:19:39;;;;;;;3.00;2.60;;;30.00;31.70;;;;;;5061549;28;20063;-52
2022/08/11 11:24:59;;;;;;;2.65;2.50;;;30.10;31.50;;;;;;5077349;28;20097;-50
2022/08/11 11:27:25;;;;;;;2.95;2.58;;;30.20;31.40;;;;;;5074155;28;20446;-52
2022/08/11 11:30:08;;;;;;;1.98;1.83;;;30.40;31.20;;;;;;5090617;28;20463;-50
2022/08/11 11:33:08;;;;;;;3.03;2.15;;;30.40;30.70;;;;;;5076096;28;20411;-55
2022/08/11 11:35:43;;;;;;;6.60;2.40;;;30.50;30.90;;;;;;5081105;28;20113;-54
2022/08/11 11:38:10;;;;;;;3.58;2.25;;;30.60;30.00;;;;;;5089577;28;20052;-53
2022/08/11 11:40:42;;;;;;;2.10;1.73;;;30.60;30.00;;;;;;5067401;28;20098;-55
2022/08/11 11:43:11;;;;;;;3.95;2.40;;;30.70;30.00;;;;;;5077911;28;20040;-49
2022/08/11 11:45:42;;;;;;;2.75;2.20;;;30.70;30.00;;;;;;5089421;28;20043;-52
2022/08/11 11:48:11;;;;;;;3.75;2.08;;;30.80;30.00;;;;;;5089028;28;20105;-54
2022/08/11 11:50:44;;;;;;;2.15;2.00;;;30.90;30.00;;;;;;5067336;28;20048;-53
2022/08/11 11:53:12;;;;;;;3.33;2.20;;;30.90;29.50;;;;;;5082668;28;20039;-50
2022/08/11 11:55:40;;;;;;;3.95;2.25;;;31.00;29.60;;;;;;5084492;28;20545;-54
2022/08/11 12:03:48;;;;;;;2.78;2.58;;;31.10;30.00;;;;;;5065665;28;20416;-52
2022/08/11 12:06:17;;;;;;;2.45;2.15;;;31.20;29.50;;;;;;5060231;28;20048;-53
2022/08/11 12:08:52;;;;;;;4.50;2.08;;;31.20;29.10;;;;;;5060628;28;20456;-49
2022/08/11 12:14:16;;;;;;;3.85;2.33;;;31.30;29.10;;;;;;5067014;28;20098;-49
2022/08/11 12:16:44;;;;;;;3.97;2.47;;;31.40;28.60;;;;;;5063474;28;20033;-50
2022/08/11 12:19:14;;;;;;;2.30;2.10;;;31.40;29.00;;;;;;5076386;28;20049;-52
2022/08/11 12:27:20;;;;;;;4.30;2.42;;;31.70;28.90;;;;;;5071612;28;20042;-51
2022/08/11 12:29:58;;;;;;;3.22;2.15;;;31.80;29.00;;;;;;5078649;28;20133;-53
2022/08/11 12:32:33;;;;;;;2.90;2.40;;;31.90;28.90;;;;;;5078720;28;20056;-52
2022/08/11 12:35:01;;;;;;;2.75;2.40;;;32.00;28.60;;;;;;5079039;28;20111;-53
2022/08/11 12:37:35;;;;;;;3.30;2.17;;;32.00;28.20;;;;;;5073418;28;20447;-53
2022/08/11 12:46:13;;;;;;;2.25;2.05;;;32.20;28.10;;;;;;5061414;28;20421;-50
2022/08/11 12:54:40;;;;;;;5.78;2.40;;;32.60;28.40;;;;;;5063227;28;20045;-57
2022/08/11 13:05:42;;;;;;;3.50;2.35;;;32.90;28.10;;;;;;5069560;28;20098;-52
2022/08/11 13:08:13;;;;;;;2.50;2.05;;;33.00;28.00;;;;;;5085541;28;20043;-54
2022/08/11 13:13:26;;;;;;;3.83;2.55;;;33.20;27.90;;;;;;5092612;28;20435;-53
2022/08/11 13:16:14;;;;;;;3.03;2.00;;;33.30;27.70;;;;;;5080253;28;20064;-53
2022/08/11 13:18:45;;;;;;;4.25;2.63;;;33.40;27.60;;;;;;5091398;28;20097;-54
2022/08/11 13:21:13;;;;;;;3.67;2.75;;;33.60;27.50;;;;;;5061331;28;20044;-53
2022/08/11 13:23:53;;;;;;;3.63;2.28;;;33.60;27.10;;;;;;5065627;28;20634;-53
2022/08/11 13:26:34;;;;;;;2.55;2.35;;;33.70;27.20;;;;;;5069039;28;20040;-53
2022/08/11 13:29:26;;;;;;;4.18;2.42;;;33.80;27.20;;;;;;5072917;28;20504;-53
2022/08/11 13:31:58;;;;;;;3.10;2.40;;;33.90;27.30;;;;;;5070495;28;20090;-55
2022/08/11 13:34:27;;;;;;;4.10;2.38;;;34.10;27.70;;;;;;5065249;28;20043;-51
2022/08/11 13:36:58;;;;;;;2.85;2.50;;;34.30;27.70;;;;;;5085892;28;20040;-50
2022/08/11 13:39:28;;;;;;;2.75;2.55;;;34.50;27.60;;;;;;5066002;28;20779;-53
2022/08/11 13:41:59;;;;;;;3.38;2.40;;;35.00;27.50;;;;;;5064640;28;20049;-52
2022/08/11 13:44:28;;;;;;;2.72;2.38;;;35.70;27.20;;;;;;5078934;28;20044;-54
2022/08/11 13:46:59;;;;;;;3.45;2.17;;;36.60;27.20;;;;;;5074287;28;20068;-51
2022/08/11 13:49:27;;;;;;;7.30;1.98;;;37.60;27.30;;;;;;5070915;28;20501;-51
2022/08/11 13:51:54;;;;;;;2.25;2.05;;;38.90;26.90;;;;;;5066001;28;20036;-51
2022/08/11 13:54:26;;;;;;;2.55;1.70;;;40.10;26.70;;;;;;5051888;28;20037;-53
2022/08/11 13:56:59;;;;;;;2.05;1.80;;;41.50;25.30;;;;;;5087248;28;20508;-51
2022/08/11 13:59:26;;;;;;;5.78;2.05;;;42.70;24.50;;;;;;5067393;28;20072;-52
2022/08/11 14:02:02;;;;;;;;;;;43.80;24.00;;;;;;5070921;28;20119;-49
2022/08/11 14:04:49;;;;;;;2.25;1.50;;;44.70;25.90;;;;;;5072690;28;20019;-48
2022/08/11 14:07:21;;;;;;;3.35;1.85;;;46.00;23.90;;;;;;5068266;28;20047;-53
2022/08/11 14:09:55;;;;;;;2.42;2.20;;;46.90;23.00;;;;;;5067614;28;20145;-52
2022/08/11 14:15:26;;;;;;;1.85;1.70;;;48.70;21.70;;;;;;5068306;28;20037;-59
2022/08/11 14:18:12;;;;;;;2.85;1.80;;;49.40;21.50;;;;;;5062572;28;20040;-55
2022/08/11 14:23:41;;;;;;;2.28;1.90;;;50.20;20.50;;;;;;5063187;28;20075;-54
2022/08/11 14:26:27;;;;;;;2.40;1.70;;;50.60;20.70;;;;;;5062823;28;20045;-53
2022/08/11 14:29:03;;;;;;;3.97;1.77;;;50.80;20.50;;;;;;5067362;28;20049;-57
2022/08/11 14:31:34;;;;;;;1.40;1.30;;;51.00;20.10;;;;;;5084758;28;20111;-53
2022/08/11 14:34:09;;;;;;;1.85;1.75;;;51.10;20.30;;;;;;5082748;28;20059;-56
2022/08/11 14:36:42;;;;;;;2.47;1.58;;;51.20;20.30;;;;;;5065506;28;20378;-56
2022/08/11 14:39:15;;;;;;;2.10;1.80;;;51.50;20.30;;;;;;5075782;28;20047;-53
2022/08/11 14:47:31;;;;;;;2.92;1.80;;;52.10;19.70;;;;;;5069519;28;20058;-49
2022/08/11 14:50:01;;;;;;;6.32;2.10;;;52.20;19.40;;;;;;5075223;28;20101;-52
2022/08/11 14:52:56;;;;;;;2.15;1.88;;;52.30;19.40;;;;;;5070053;28;20382;-52
2022/08/11 14:58:22;;;;;;;1.98;1.75;;;52.30;19.30;;;;;;5072221;28;20044;-48
2022/08/11 15:00:52;;;;;;;2.47;1.85;;;52.40;19.40;;;;;;5089900;28;20040;-49
2022/08/11 15:03:21;;;;;;;4.78;2.17;;;52.50;19.30;;;;;;5090987;28;20048;-54
2022/08/11 15:05:56;;;;;;;2.10;2.00;;;52.60;19.20;;;;;;5074973;28;20052;-51
2022/08/11 15:08:56;;;;;;;2.15;2.03;;;52.70;19.10;;;;;;5076805;28;20085;-55
2022/08/11 15:17:06;;;;;;;1.67;1.58;;;53.00;19.10;;;;;;5068421;28;20068;-50
2022/08/11 15:17:06;;;;;;;2.67;1.98;;;53.20;19.30;;;;;;5076888;28;20052;-51
2022/08/11 15:19:34;;;;;;;3.10;2.13;;;53.40;19.10;;;;;;5085550;28;20044;-50
2022/08/11 15:24:57;;;;;;;3.85;1.90;;;53.70;19.00;;;;;;5071439;28;20041;-54
2022/08/11 15:39:17;;;;;;;2.40;1.90;;;54.20;18.50;;;;;;5055228;28;20110;-51
2022/08/11 15:48:01;;;;;;;3.03;1.92;;;53.80;19.50;;;;;;5077228;28;20466;-50
2022/08/11 15:50:33;;;;;;;4.00;1.90;;;53.80;18.60;;;;;;5062858;28;20044;-52
2022/08/11 15:53:10;;;;;;;1.90;1.80;;;53.80;18.50;;;;;;5063036;28;20544;-53
2022/08/11 15:55:38;;;;;;;1.98;1.85;;;53.90;18.50;;;;;;5067574;28;20036;-50
2022/08/11 16:06:44;;;;;;;1.80;1.70;;;54.30;18.30;;;;;;5072328;28;20127;-52
2022/08/11 16:09:19;;;;;;;2.92;1.98;;;54.40;18.20;;;;;;5083251;28;20484;-53
2022/08/11 16:11:47;;;;;;;3.53;1.80;;;54.50;18.10;;;;;;5086987;28;20040;-53
2022/08/11 16:17:03;;;;;;;6.93;2.63;;;54.70;18.20;;;;;;5072430;28;20416;-58
2022/08/11 16:19:33;;;;;;;3.00;1.88;;;54.80;18.20;;;;;;5061326;28;20044;-53
2022/08/11 16:22:07;;;;;;;6.75;2.90;;;54.80;17.80;;;;;;5071338;28;20208;-52
2022/08/11 16:24:37;;;;;;;12.10;4.30;;;54.80;18.00;;;;;;5082898;28;20048;-49
2022/08/11 16:27:25;;;;;;;4.90;2.65;;;54.70;18.40;;;;;;5047051;28;20127;-49
2022/08/11 16:29:54;;;;;;;6.45;3.20;;;54.60;17.90;;;;;;5050818;28;20037;-51
2022/08/11 16:32:24;;;;;;;7.15;2.50;;;54.60;18.00;;;;;;5070794;28;20051;-52
2022/08/11 16:40:31;;;;;;;2.45;2.17;;;54.50;17.90;;;;;;5063508;28;20045;-51
2022/08/11 16:48:36;;;;;;;4.63;1.98;;;54.30;17.80;;;;;;5057890;28;20067;-51
2022/08/11 16:51:11;;;;;;;1.73;1.63;;;54.30;17.90;;;;;;5066109;28;20076;-49
2022/08/11 16:53:39;;;;;;;2.03;1.67;;;54.20;17.90;;;;;;5065866;28;20048;-50
2022/08/11 16:56:34;;;;;;;1.90;1.50;;;54.10;18.60;;;;;;5072680;28;20125;-52
2022/08/11 16:59:13;;;;;;;1.77;1.65;;;54.00;17.90;;;;;;5077089;28;20487;-53
2022/08/11 17:01:52;;;;;;;2.78;2.00;;;54.00;18.10;;;;;;5087012;28;20075;-52
2022/08/11 17:13:43;;;;;;;2.70;1.70;;;53.70;18.30;;;;;;5078034;28;20101;-52
2022/08/11 17:16:12;;;;;;;1.73;1.63;;;53.60;18.20;;;;;;5065122;28;20040;-51
2022/08/11 17:19:01;;;;;;;3.40;2.20;;;53.40;17.90;;;;;;5070625;28;20075;-52
2022/08/11 17:21:34;;;;;;;1.98;1.88;;;53.20;18.20;;;;;;5061812;28;20463;-47
2022/08/11 17:24:13;;;;;;;4.22;1.85;;;52.90;18.00;;;;;;5067262;28;20048;-55
2022/08/11 17:27:00;;;;;;;3.28;2.15;;;52.80;18.20;;;;;;5070390;28;20097;-51
2022/08/11 17:29:41;;;;;;;1.90;1.77;;;52.50;18.10;;;;;;5079615;28;20055;-53
2022/08/11 17:35:37;;;;;;;2.85;1.88;;;51.90;18.30;;;;;;5067373;28;20497;-52
2022/08/11 17:38:13;;;;;;;2.03;1.92;;;51.60;18.40;;;;;;5077314;28;20105;-52
2022/08/11 17:49:12;;;;;;;2.70;2.27;;;50.40;19.20;;;;;;5083900;28;20127;-53
2022/08/11 18:00:06;;;;;;;5.18;2.60;;;49.00;18.90;;;;;;5086534;28;20051;-53
2022/08/11 18:05:43;;;;;;;7.65;4.75;;;48.40;19.40;;;;;;5066558;28;20048;-51
